AGA weather

Al Massira Airport
Agadir, Agadir Province, Morocco

Public forecast

Using degrees Celsius for public forecast. Weather courtesy of forecast.io.

METAR (pilot weather report)

Retrieved 2019/03/23 14:00 UTC (8 minutes ago):

GMAD 231400Z 07015KT 5000 FEW033 BKN100 26/01 Q1012 NOSIG

TAF (pilot weather forecast)

Retrieved 2019/03/23 12:00 UTC (2 hours ago):

TAF GMAD 231100Z 2312/2418 28018G24KT 8000 NSC TEMPO 2312/2322 SHRA BKN016